Terminal Aerodrome Forecast
Issued by NWS

Home | Current Version | Previous Version | Text Only | Print | Product List | Glossary On
Versions: 1 2 3 4 5 6 7 8 9 10 11 12 13 14 15 16 17 18 19 20 21
000
FTUS41 KBGM 201100
TAFELM
TAF
KELM 201123Z 2012/2112 29003KT P6SM OVC022
     FM202000 VRB03KT P6SM SCT025
     FM210800 VRB03KT P6SM OVC150=

USA.gov is the U.S. government's official web portal to all federal, state and local government web resources and services.